sensor_id;sensor_type;location;lat;lon;timestamp;P1;durP1;ratioP1;P2;durP2;ratioP2
77432;SDS011;66752;48.576;8.876;2023-07-09T00:01:14;6.07;;;3.35;;
77432;SDS011;66752;48.576;8.876;2023-07-09T00:03:42;6.47;;;3.03;;
77432;SDS011;66752;48.576;8.876;2023-07-09T00:06:08;6.97;;;3.08;;
77432;SDS011;66752;48.576;8.876;2023-07-09T00:08:34;6.70;;;3.78;;
77432;SDS011;66752;48.576;8.876;2023-07-09T00:11:00;7.25;;;3.58;;
77432;SDS011;66752;48.576;8.876;2023-07-09T00:13:27;8.00;;;3.75;;
77432;SDS011;66752;48.576;8.876;2023-07-09T00:15:55;8.95;;;3.90;;
77432;SDS011;66752;48.576;8.876;2023-07-09T00:18:23;7.10;;;3.83;;
77432;SDS011;66752;48.576;8.876;2023-07-09T00:20:49;6.60;;;3.97;;
77432;SDS011;66752;48.576;8.876;2023-07-09T00:23:15;6.68;;;3.78;;
77432;SDS011;66752;48.576;8.876;2023-07-09T00:25:41;7.72;;;3.95;;
77432;SDS011;66752;48.576;8.876;2023-07-09T00:28:18;10.77;;;4.00;;
77432;SDS011;66752;48.576;8.876;2023-07-09T00:30:45;8.23;;;3.92;;
77432;SDS011;66752;48.576;8.876;2023-07-09T00:33:11;7.72;;;3.40;;
77432;SDS011;66752;48.576;8.876;2023-07-09T00:35:41;9.23;;;4.30;;
77432;SDS011;66752;48.576;8.876;2023-07-09T00:38:21;9.07;;;4.05;;
77432;SDS011;66752;48.576;8.876;2023-07-09T00:40:56;6.82;;;3.63;;
77432;SDS011;66752;48.576;8.876;2023-07-09T00:43:22;7.82;;;3.92;;
77432;SDS011;66752;48.576;8.876;2023-07-09T00:46:08;6.05;;;3.50;;
77432;SDS011;66752;48.576;8.876;2023-07-09T00:48:34;7.28;;;4.10;;
77432;SDS011;66752;48.576;8.876;2023-07-09T00:51:00;5.90;;;3.70;;
77432;SDS011;66752;48.576;8.876;2023-07-09T00:53:28;7.53;;;4.38;;
77432;SDS011;66752;48.576;8.876;2023-07-09T00:55:59;6.63;;;4.05;;
77432;SDS011;66752;48.576;8.876;2023-07-09T00:58:28;8.45;;;4.28;;
77432;SDS011;66752;48.576;8.876;2023-07-09T01:00:56;8.60;;;4.07;;
77432;SDS011;66752;48.576;8.876;2023-07-09T01:03:25;6.45;;;3.17;;
77432;SDS011;66752;48.576;8.876;2023-07-09T01:05:54;7.72;;;4.05;;
77432;SDS011;66752;48.576;8.876;2023-07-09T01:08:20;7.13;;;3.50;;
77432;SDS011;66752;48.576;8.876;2023-07-09T01:10:46;7.35;;;3.97;;
77432;SDS011;66752;48.576;8.876;2023-07-09T01:13:12;8.40;;;4.18;;
77432;SDS011;66752;48.576;8.876;2023-07-09T01:15:39;7.30;;;3.80;;
77432;SDS011;66752;48.576;8.876;2023-07-09T01:18:05;7.25;;;4.00;;
77432;SDS011;66752;48.576;8.876;2023-07-09T01:20:32;8.07;;;4.10;;
77432;SDS011;66752;48.576;8.876;2023-07-09T01:25:25;8.82;;;3.80;;
77432;SDS011;66752;48.576;8.876;2023-07-09T01:27:53;9.93;;;3.95;;
77432;SDS011;66752;48.576;8.876;2023-07-09T01:32:47;7.03;;;3.75;;
77432;SDS011;66752;48.576;8.876;2023-07-09T01:35:15;9.45;;;4.53;;
77432;SDS011;66752;48.576;8.876;2023-07-09T01:37:42;7.65;;;3.67;;
77432;SDS011;66752;48.576;8.876;2023-07-09T01:40:10;6.80;;;3.88;;
77432;SDS011;66752;48.576;8.876;2023-07-09T01:42:37;6.90;;;4.00;;
77432;SDS011;66752;48.576;8.876;2023-07-09T01:45:04;7.22;;;4.57;;
77432;SDS011;66752;48.576;8.876;2023-07-09T01:47:30;8.82;;;4.22;;
77432;SDS011;66752;48.576;8.876;2023-07-09T01:49:57;8.02;;;3.85;;
77432;SDS011;66752;48.576;8.876;2023-07-09T01:52:31;8.18;;;4.05;;
77432;SDS011;66752;48.576;8.876;2023-07-09T01:54:58;7.45;;;3.90;;
77432;SDS011;66752;48.576;8.876;2023-07-09T01:57:25;7.22;;;4.18;;
77432;SDS011;66752;48.576;8.876;2023-07-09T01:59:58;6.03;;;3.75;;
77432;SDS011;66752;48.576;8.876;2023-07-09T02:02:24;7.97;;;3.97;;
77432;SDS011;66752;48.576;8.876;2023-07-09T02:07:17;8.65;;;4.25;;
77432;SDS011;66752;48.576;8.876;2023-07-09T02:09:44;7.32;;;3.78;;
77432;SDS011;66752;48.576;8.876;2023-07-09T02:14:36;8.35;;;4.18;;
77432;SDS011;66752;48.576;8.876;2023-07-09T02:17:02;8.88;;;4.30;;
77432;SDS011;66752;48.576;8.876;2023-07-09T02:19:29;7.03;;;3.90;;
77432;SDS011;66752;48.576;8.876;2023-07-09T02:21:55;10.75;;;4.30;;
77432;SDS011;66752;48.576;8.876;2023-07-09T02:26:50;7.30;;;3.85;;
77432;SDS011;66752;48.576;8.876;2023-07-09T02:29:16;6.72;;;4.03;;
77432;SDS011;66752;48.576;8.876;2023-07-09T02:34:08;7.35;;;4.03;;
77432;SDS011;66752;48.576;8.876;2023-07-09T02:36:35;6.95;;;3.83;;
77432;SDS011;66752;48.576;8.876;2023-07-09T02:39:01;7.25;;;4.13;;
77432;SDS011;66752;48.576;8.876;2023-07-09T02:41:28;9.88;;;4.55;;
77432;SDS011;66752;48.576;8.876;2023-07-09T02:43:54;7.80;;;4.75;;
77432;SDS011;66752;48.576;8.876;2023-07-09T02:46:20;7.85;;;4.35;;
77432;SDS011;66752;48.576;8.876;2023-07-09T02:48:46;7.55;;;4.07;;
77432;SDS011;66752;48.576;8.876;2023-07-09T02:51:12;8.73;;;4.50;;
77432;SDS011;66752;48.576;8.876;2023-07-09T02:53:38;8.00;;;4.07;;
77432;SDS011;66752;48.576;8.876;2023-07-09T02:56:04;9.13;;;3.97;;
77432;SDS011;66752;48.576;8.876;2023-07-09T02:58:30;7.80;;;3.97;;
77432;SDS011;66752;48.576;8.876;2023-07-09T03:00:56;7.18;;;3.92;;
77432;SDS011;66752;48.576;8.876;2023-07-09T03:03:21;9.52;;;4.70;;
77432;SDS011;66752;48.576;8.876;2023-07-09T03:05:47;9.77;;;4.15;;
77432;SDS011;66752;48.576;8.876;2023-07-09T03:08:14;9.68;;;4.63;;
77432;SDS011;66752;48.576;8.876;2023-07-09T03:10:40;7.70;;;4.32;;
77432;SDS011;66752;48.576;8.876;2023-07-09T03:13:06;9.50;;;4.38;;
77432;SDS011;66752;48.576;8.876;2023-07-09T03:15:32;10.23;;;5.30;;
77432;SDS011;66752;48.576;8.876;2023-07-09T03:17:59;7.50;;;4.90;;
77432;SDS011;66752;48.576;8.876;2023-07-09T03:20:25;9.00;;;4.63;;
77432;SDS011;66752;48.576;8.876;2023-07-09T03:22:50;8.98;;;4.43;;
77432;SDS011;66752;48.576;8.876;2023-07-09T03:25:16;9.50;;;4.45;;
77432;SDS011;66752;48.576;8.876;2023-07-09T03:27:42;7.78;;;4.75;;
77432;SDS011;66752;48.576;8.876;2023-07-09T03:30:09;7.97;;;4.40;;
77432;SDS011;66752;48.576;8.876;2023-07-09T03:32:35;8.15;;;4.65;;
77432;SDS011;66752;48.576;8.876;2023-07-09T03:35:01;8.85;;;4.50;;
77432;SDS011;66752;48.576;8.876;2023-07-09T03:37:27;13.98;;;4.50;;
77432;SDS011;66752;48.576;8.876;2023-07-09T03:39:53;9.00;;;4.43;;
77432;SDS011;66752;48.576;8.876;2023-07-09T03:42:19;8.60;;;4.50;;
77432;SDS011;66752;48.576;8.876;2023-07-09T03:44:46;7.93;;;4.50;;
77432;SDS011;66752;48.576;8.876;2023-07-09T03:47:13;9.95;;;5.22;;
77432;SDS011;66752;48.576;8.876;2023-07-09T03:49:40;8.13;;;4.53;;
77432;SDS011;66752;48.576;8.876;2023-07-09T03:52:07;10.40;;;4.63;;
77432;SDS011;66752;48.576;8.876;2023-07-09T03:56:59;7.43;;;4.45;;
77432;SDS011;66752;48.576;8.876;2023-07-09T03:59:25;8.30;;;4.38;;
77432;SDS011;66752;48.576;8.876;2023-07-09T04:01:51;7.07;;;4.75;;
77432;SDS011;66752;48.576;8.876;2023-07-09T04:04:18;9.93;;;4.22;;
77432;SDS011;66752;48.576;8.876;2023-07-09T04:06:45;7.32;;;4.18;;
77432;SDS011;66752;48.576;8.876;2023-07-09T04:09:11;14.75;;;5.47;;
77432;SDS011;66752;48.576;8.876;2023-07-09T04:11:37;8.77;;;5.20;;
77432;SDS011;66752;48.576;8.876;2023-07-09T04:14:03;8.63;;;4.75;;
77432;SDS011;66752;48.576;8.876;2023-07-09T04:16:30;7.68;;;4.88;;
77432;SDS011;66752;48.576;8.876;2023-07-09T04:18:55;9.40;;;4.78;;
77432;SDS011;66752;48.576;8.876;2023-07-09T04:21:21;9.77;;;5.70;;
77432;SDS011;66752;48.576;8.876;2023-07-09T04:23:48;9.27;;;4.82;;
77432;SDS011;66752;48.576;8.876;2023-07-09T04:26:15;8.18;;;5.00;;
77432;SDS011;66752;48.576;8.876;2023-07-09T04:28:42;13.27;;;5.57;;
77432;SDS011;66752;48.576;8.876;2023-07-09T04:31:08;17.00;;;5.18;;
77432;SDS011;66752;48.576;8.876;2023-07-09T04:33:34;10.07;;;5.78;;
77432;SDS011;66752;48.576;8.876;2023-07-09T04:36:00;10.45;;;4.70;;
77432;SDS011;66752;48.576;8.876;2023-07-09T04:38:26;8.68;;;5.00;;
77432;SDS011;66752;48.576;8.876;2023-07-09T04:40:52;9.13;;;5.00;;
77432;SDS011;66752;48.576;8.876;2023-07-09T04:43:18;7.45;;;4.40;;
77432;SDS011;66752;48.576;8.876;2023-07-09T04:45:44;9.15;;;5.28;;
77432;SDS011;66752;48.576;8.876;2023-07-09T04:48:10;8.43;;;4.78;;
77432;SDS011;66752;48.576;8.876;2023-07-09T04:50:36;8.45;;;5.05;;
77432;SDS011;66752;48.576;8.876;2023-07-09T04:53:02;8.60;;;5.25;;
77432;SDS011;66752;48.576;8.876;2023-07-09T04:55:28;10.07;;;5.07;;
77432;SDS011;66752;48.576;8.876;2023-07-09T04:57:54;9.38;;;5.65;;
77432;SDS011;66752;48.576;8.876;2023-07-09T05:00:21;8.32;;;4.93;;
77432;SDS011;66752;48.576;8.876;2023-07-09T05:02:47;9.52;;;5.88;;
77432;SDS011;66752;48.576;8.876;2023-07-09T05:05:13;9.30;;;5.55;;
77432;SDS011;66752;48.576;8.876;2023-07-09T05:07:39;7.97;;;5.05;;
77432;SDS011;66752;48.576;8.876;2023-07-09T05:10:06;8.90;;;5.75;;
77432;SDS011;66752;48.576;8.876;2023-07-09T05:12:32;9.63;;;5.65;;
77432;SDS011;66752;48.576;8.876;2023-07-09T05:14:58;8.88;;;5.05;;
77432;SDS011;66752;48.576;8.876;2023-07-09T05:17:24;10.52;;;5.93;;
77432;SDS011;66752;48.576;8.876;2023-07-09T05:19:51;10.20;;;5.43;;
77432;SDS011;66752;48.576;8.876;2023-07-09T05:22:17;8.00;;;5.05;;
77432;SDS011;66752;48.576;8.876;2023-07-09T05:24:43;10.15;;;5.30;;
77432;SDS011;66752;48.576;8.876;2023-07-09T05:27:09;8.43;;;5.55;;
77432;SDS011;66752;48.576;8.876;2023-07-09T05:29:35;9.73;;;5.43;;
77432;SDS011;66752;48.576;8.876;2023-07-09T05:32:02;9.50;;;5.50;;
77432;SDS011;66752;48.576;8.876;2023-07-09T05:34:29;9.65;;;5.50;;
77432;SDS011;66752;48.576;8.876;2023-07-09T05:36:56;11.35;;;4.95;;
77432;SDS011;66752;48.576;8.876;2023-07-09T05:39:22;9.32;;;5.55;;
77432;SDS011;66752;48.576;8.876;2023-07-09T05:41:49;9.32;;;5.63;;
77432;SDS011;66752;48.576;8.876;2023-07-09T05:44:15;7.60;;;5.38;;
77432;SDS011;66752;48.576;8.876;2023-07-09T05:46:41;10.55;;;5.88;;
77432;SDS011;66752;48.576;8.876;2023-07-09T05:49:09;9.80;;;5.50;;
77432;SDS011;66752;48.576;8.876;2023-07-09T05:51:35;9.52;;;5.53;;
77432;SDS011;66752;48.576;8.876;2023-07-09T05:54:02;7.72;;;5.00;;
77432;SDS011;66752;48.576;8.876;2023-07-09T05:56:28;8.25;;;5.32;;
77432;SDS011;66752;48.576;8.876;2023-07-09T05:58:54;10.20;;;5.00;;
77432;SDS011;66752;48.576;8.876;2023-07-09T06:01:21;11.43;;;5.68;;
77432;SDS011;66752;48.576;8.876;2023-07-09T06:03:47;10.40;;;5.75;;
77432;SDS011;66752;48.576;8.876;2023-07-09T06:06:14;9.63;;;5.40;;
77432;SDS011;66752;48.576;8.876;2023-07-09T06:08:40;8.43;;;5.28;;
77432;SDS011;66752;48.576;8.876;2023-07-09T06:11:06;10.75;;;5.68;;
77432;SDS011;66752;48.576;8.876;2023-07-09T06:13:32;11.18;;;5.32;;
77432;SDS011;66752;48.576;8.876;2023-07-09T06:15:59;8.40;;;5.40;;
77432;SDS011;66752;48.576;8.876;2023-07-09T06:18:25;11.18;;;5.47;;
77432;SDS011;66752;48.576;8.876;2023-07-09T06:20:55;10.07;;;5.15;;
77432;SDS011;66752;48.576;8.876;2023-07-09T06:23:22;8.05;;;5.40;;
77432;SDS011;66752;48.576;8.876;2023-07-09T06:25:49;8.70;;;5.05;;
77432;SDS011;66752;48.576;8.876;2023-07-09T06:28:16;8.32;;;5.13;;
77432;SDS011;66752;48.576;8.876;2023-07-09T06:30:43;9.80;;;5.53;;
77432;SDS011;66752;48.576;8.876;2023-07-09T06:33:10;11.00;;;5.80;;
77432;SDS011;66752;48.576;8.876;2023-07-09T06:35:36;10.85;;;5.88;;
77432;SDS011;66752;48.576;8.876;2023-07-09T06:38:02;8.77;;;5.57;;
77432;SDS011;66752;48.576;8.876;2023-07-09T06:40:28;9.18;;;5.45;;
77432;SDS011;66752;48.576;8.876;2023-07-09T06:45:20;10.13;;;4.63;;
77432;SDS011;66752;48.576;8.876;2023-07-09T06:47:46;11.90;;;5.70;;
77432;SDS011;66752;48.576;8.876;2023-07-09T06:50:14;11.60;;;5.28;;
77432;SDS011;66752;48.576;8.876;2023-07-09T06:52:41;8.45;;;5.70;;
77432;SDS011;66752;48.576;8.876;2023-07-09T06:55:07;10.43;;;5.57;;
77432;SDS011;66752;48.576;8.876;2023-07-09T06:57:34;8.05;;;5.85;;
77432;SDS011;66752;48.576;8.876;2023-07-09T07:00:00;9.07;;;5.53;;
77432;SDS011;66752;48.576;8.876;2023-07-09T07:02:26;9.85;;;4.97;;
77432;SDS011;66752;48.576;8.876;2023-07-09T07:04:52;9.80;;;5.35;;
77432;SDS011;66752;48.576;8.876;2023-07-09T07:07:18;7.90;;;4.93;;
77432;SDS011;66752;48.576;8.876;2023-07-09T07:09:44;8.10;;;5.10;;
77432;SDS011;66752;48.576;8.876;2023-07-09T07:12:12;9.93;;;5.05;;
77432;SDS011;66752;48.576;8.876;2023-07-09T07:14:45;11.02;;;5.25;;
77432;SDS011;66752;48.576;8.876;2023-07-09T07:17:11;10.52;;;5.20;;
77432;SDS011;66752;48.576;8.876;2023-07-09T07:19:37;8.55;;;4.93;;
77432;SDS011;66752;48.576;8.876;2023-07-09T07:22:03;7.90;;;4.82;;
77432;SDS011;66752;48.576;8.876;2023-07-09T07:24:32;8.80;;;4.65;;
77432;SDS011;66752;48.576;8.876;2023-07-09T07:26:58;10.23;;;5.38;;
77432;SDS011;66752;48.576;8.876;2023-07-09T07:29:24;11.85;;;5.07;;
77432;SDS011;66752;48.576;8.876;2023-07-09T07:31:51;7.32;;;4.55;;
77432;SDS011;66752;48.576;8.876;2023-07-09T07:34:17;11.85;;;5.85;;
77432;SDS011;66752;48.576;8.876;2023-07-09T07:36:43;9.63;;;4.72;;
77432;SDS011;66752;48.576;8.876;2023-07-09T07:39:09;8.95;;;4.10;;
77432;SDS011;66752;48.576;8.876;2023-07-09T07:41:35;10.95;;;4.78;;
77432;SDS011;66752;48.576;8.876;2023-07-09T07:44:01;10.20;;;5.45;;
77432;SDS011;66752;48.576;8.876;2023-07-09T07:46:28;8.43;;;4.40;;
77432;SDS011;66752;48.576;8.876;2023-07-09T07:48:57;11.70;;;4.63;;
77432;SDS011;66752;48.576;8.876;2023-07-09T07:53:51;9.50;;;4.72;;
77432;SDS011;66752;48.576;8.876;2023-07-09T07:56:18;6.72;;;4.40;;
77432;SDS011;66752;48.576;8.876;2023-07-09T07:58:44;9.65;;;4.78;;
77432;SDS011;66752;48.576;8.876;2023-07-09T08:03:36;9.25;;;5.15;;
77432;SDS011;66752;48.576;8.876;2023-07-09T08:08:28;6.72;;;3.75;;
77432;SDS011;66752;48.576;8.876;2023-07-09T08:10:59;10.25;;;4.43;;
77432;SDS011;66752;48.576;8.876;2023-07-09T08:15:52;9.23;;;4.28;;
77432;SDS011;66752;48.576;8.876;2023-07-09T08:20:44;9.73;;;4.35;;
77432;SDS011;66752;48.576;8.876;2023-07-09T08:23:10;7.82;;;3.95;;
77432;SDS011;66752;48.576;8.876;2023-07-09T08:28:02;8.65;;;4.28;;
77432;SDS011;66752;48.576;8.876;2023-07-09T08:32:54;9.75;;;4.00;;
77432;SDS011;66752;48.576;8.876;2023-07-09T08:35:20;5.68;;;3.38;;
77432;SDS011;66752;48.576;8.876;2023-07-09T08:37:47;7.65;;;4.07;;
77432;SDS011;66752;48.576;8.876;2023-07-09T08:42:45;8.85;;;4.05;;
77432;SDS011;66752;48.576;8.876;2023-07-09T08:45:19;7.95;;;3.72;;
77432;SDS011;66752;48.576;8.876;2023-07-09T08:48:51;7.88;;;3.65;;
77432;SDS011;66752;48.576;8.876;2023-07-09T08:50:47;6.70;;;4.07;;
77432;SDS011;66752;48.576;8.876;2023-07-09T08:53:16;10.32;;;4.53;;
77432;SDS011;66752;48.576;8.876;2023-07-09T08:55:44;6.38;;;3.33;;
77432;SDS011;66752;48.576;8.876;2023-07-09T08:58:17;7.47;;;3.70;;
77432;SDS011;66752;48.576;8.876;2023-07-09T09:00:49;6.57;;;3.97;;
77432;SDS011;66752;48.576;8.876;2023-07-09T09:05:46;6.43;;;3.75;;
77432;SDS011;66752;48.576;8.876;2023-07-09T09:10:46;6.88;;;3.58;;
77432;SDS011;66752;48.576;8.876;2023-07-09T09:13:14;7.28;;;3.50;;
77432;SDS011;66752;48.576;8.876;2023-07-09T09:15:41;6.90;;;3.67;;
77432;SDS011;66752;48.576;8.876;2023-07-09T09:18:24;6.22;;;3.13;;
77432;SDS011;66752;48.576;8.876;2023-07-09T09:23:44;7.72;;;3.50;;
77432;SDS011;66752;48.576;8.876;2023-07-09T09:26:17;6.10;;;3.05;;
77432;SDS011;66752;48.576;8.876;2023-07-09T09:28:43;5.80;;;3.40;;
77432;SDS011;66752;48.576;8.876;2023-07-09T09:31:10;6.78;;;3.50;;
77432;SDS011;66752;48.576;8.876;2023-07-09T09:33:40;6.82;;;3.50;;
77432;SDS011;66752;48.576;8.876;2023-07-09T09:36:11;7.18;;;3.80;;
77432;SDS011;66752;48.576;8.876;2023-07-09T09:38:40;7.07;;;3.47;;
77432;SDS011;66752;48.576;8.876;2023-07-09T09:41:10;7.35;;;3.40;;
77432;SDS011;66752;48.576;8.876;2023-07-09T09:43:37;5.72;;;3.17;;
77432;SDS011;66752;48.576;8.876;2023-07-09T09:46:07;7.10;;;3.53;;
77432;SDS011;66752;48.576;8.876;2023-07-09T09:48:33;8.77;;;3.72;;
77432;SDS011;66752;48.576;8.876;2023-07-09T09:50:59;7.43;;;3.45;;
77432;SDS011;66752;48.576;8.876;2023-07-09T09:53:29;6.85;;;3.58;;
77432;SDS011;66752;48.576;8.876;2023-07-09T09:55:55;7.80;;;3.03;;
77432;SDS011;66752;48.576;8.876;2023-07-09T09:58:27;6.22;;;3.35;;
77432;SDS011;66752;48.576;8.876;2023-07-09T10:00:55;8.20;;;3.28;;
77432;SDS011;66752;48.576;8.876;2023-07-09T10:03:21;6.82;;;3.10;;
77432;SDS011;66752;48.576;8.876;2023-07-09T10:05:58;6.35;;;3.15;;
77432;SDS011;66752;48.576;8.876;2023-07-09T10:11:05;6.30;;;3.08;;
77432;SDS011;66752;48.576;8.876;2023-07-09T10:13:34;6.45;;;3.05;;
77432;SDS011;66752;48.576;8.876;2023-07-09T10:16:07;5.63;;;3.10;;
77432;SDS011;66752;48.576;8.876;2023-07-09T10:21:14;8.98;;;3.42;;
77432;SDS011;66752;48.576;8.876;2023-07-09T10:23:44;5.05;;;2.80;;
77432;SDS011;66752;48.576;8.876;2023-07-09T10:28:47;7.32;;;3.22;;
77432;SDS011;66752;48.576;8.876;2023-07-09T10:39:26;7.32;;;2.63;;
77432;SDS011;66752;48.576;8.876;2023-07-09T10:41:54;6.38;;;3.28;;
77432;SDS011;66752;48.576;8.876;2023-07-09T10:44:23;6.88;;;3.33;;
77432;SDS011;66752;48.576;8.876;2023-07-09T10:46:51;6.97;;;3.30;;
77432;SDS011;66752;48.576;8.876;2023-07-09T10:49:19;7.18;;;3.40;;
77432;SDS011;66752;48.576;8.876;2023-07-09T10:51:50;5.82;;;3.38;;
77432;SDS011;66752;48.576;8.876;2023-07-09T10:56:55;7.32;;;2.95;;
77432;SDS011;66752;48.576;8.876;2023-07-09T10:59:26;5.60;;;3.22;;
77432;SDS011;66752;48.576;8.876;2023-07-09T11:01:54;7.47;;;3.58;;
77432;SDS011;66752;48.576;8.876;2023-07-09T11:04:29;7.38;;;2.60;;
77432;SDS011;66752;48.576;8.876;2023-07-09T11:06:57;6.85;;;3.20;;
77432;SDS011;66752;48.576;8.876;2023-07-09T11:09:32;9.60;;;3.55;;
77432;SDS011;66752;48.576;8.876;2023-07-09T11:12:00;7.45;;;3.35;;
77432;SDS011;66752;48.576;8.876;2023-07-09T11:14:39;6.38;;;3.50;;
77432;SDS011;66752;48.576;8.876;2023-07-09T11:17:07;6.72;;;3.60;;
77432;SDS011;66752;48.576;8.876;2023-07-09T11:19:41;5.88;;;3.20;;
77432;SDS011;66752;48.576;8.876;2023-07-09T11:22:35;5.40;;;3.17;;
77432;SDS011;66752;48.576;8.876;2023-07-09T11:25:12;9.30;;;3.78;;
77432;SDS011;66752;48.576;8.876;2023-07-09T11:27:51;9.88;;;3.92;;
77432;SDS011;66752;48.576;8.876;2023-07-09T11:30:19;8.52;;;3.80;;
77432;SDS011;66752;48.576;8.876;2023-07-09T11:32:46;8.05;;;3.60;;
77432;SDS011;66752;48.576;8.876;2023-07-09T11:35:22;6.50;;;3.35;;
77432;SDS011;66752;48.576;8.876;2023-07-09T11:37:48;7.30;;;3.88;;
77432;SDS011;66752;48.576;8.876;2023-07-09T11:40:14;6.07;;;3.13;;
77432;SDS011;66752;48.576;8.876;2023-07-09T11:42:48;7.32;;;3.47;;
77432;SDS011;66752;48.576;8.876;2023-07-09T11:45:16;6.57;;;3.17;;
77432;SDS011;66752;48.576;8.876;2023-07-09T11:47:45;7.45;;;3.63;;
77432;SDS011;66752;48.576;8.876;2023-07-09T11:50:22;6.60;;;3.22;;
77432;SDS011;66752;48.576;8.876;2023-07-09T11:52:53;6.43;;;3.15;;
77432;SDS011;66752;48.576;8.876;2023-07-09T11:57:47;7.00;;;3.22;;
77432;SDS011;66752;48.576;8.876;2023-07-09T12:00:14;7.43;;;3.63;;
77432;SDS011;66752;48.576;8.876;2023-07-09T12:02:40;7.00;;;3.35;;
77432;SDS011;66752;48.576;8.876;2023-07-09T12:05:06;7.68;;;3.88;;
77432;SDS011;66752;48.576;8.876;2023-07-09T12:07:32;8.52;;;4.13;;
77432;SDS011;66752;48.576;8.876;2023-07-09T12:10:02;6.20;;;3.05;;
77432;SDS011;66752;48.576;8.876;2023-07-09T12:12:28;6.57;;;3.10;;
77432;SDS011;66752;48.576;8.876;2023-07-09T12:14:54;6.97;;;3.33;;
77432;SDS011;66752;48.576;8.876;2023-07-09T12:17:25;5.93;;;3.30;;
77432;SDS011;66752;48.576;8.876;2023-07-09T12:19:53;9.40;;;3.90;;
77432;SDS011;66752;48.576;8.876;2023-07-09T12:22:20;8.18;;;3.08;;
77432;SDS011;66752;48.576;8.876;2023-07-09T12:24:47;7.45;;;3.90;;
77432;SDS011;66752;48.576;8.876;2023-07-09T12:27:17;8.32;;;3.08;;
77432;SDS011;66752;48.576;8.876;2023-07-09T12:29:43;6.57;;;3.80;;
77432;SDS011;66752;48.576;8.876;2023-07-09T12:32:13;8.20;;;3.88;;
77432;SDS011;66752;48.576;8.876;2023-07-09T12:34:39;7.97;;;3.00;;
77432;SDS011;66752;48.576;8.876;2023-07-09T12:37:07;11.23;;;4.85;;
77432;SDS011;66752;48.576;8.876;2023-07-09T12:39:34;7.93;;;3.17;;
77432;SDS011;66752;48.576;8.876;2023-07-09T12:42:00;7.63;;;3.40;;
77432;SDS011;66752;48.576;8.876;2023-07-09T12:44:27;7.38;;;3.33;;
77432;SDS011;66752;48.576;8.876;2023-07-09T12:46:56;8.15;;;4.03;;
77432;SDS011;66752;48.576;8.876;2023-07-09T12:49:26;5.88;;;3.10;;
77432;SDS011;66752;48.576;8.876;2023-07-09T12:51:56;5.78;;;2.88;;
77432;SDS011;66752;48.576;8.876;2023-07-09T12:54:23;5.43;;;2.88;;
77432;SDS011;66752;48.576;8.876;2023-07-09T12:56:52;6.82;;;2.95;;
77432;SDS011;66752;48.576;8.876;2023-07-09T12:59:28;6.65;;;2.40;;
77432;SDS011;66752;48.576;8.876;2023-07-09T13:02:09;7.15;;;3.05;;
77432;SDS011;66752;48.576;8.876;2023-07-09T13:04:38;7.82;;;3.42;;
77432;SDS011;66752;48.576;8.876;2023-07-09T13:07:05;5.50;;;2.47;;
77432;SDS011;66752;48.576;8.876;2023-07-09T13:09:47;6.32;;;3.15;;
77432;SDS011;66752;48.576;8.876;2023-07-09T13:12:13;6.28;;;2.92;;
77432;SDS011;66752;48.576;8.876;2023-07-09T13:14:39;6.18;;;2.60;;
77432;SDS011;66752;48.576;8.876;2023-07-09T13:17:06;6.72;;;3.50;;
77432;SDS011;66752;48.576;8.876;2023-07-09T13:19:32;7.82;;;2.85;;
77432;SDS011;66752;48.576;8.876;2023-07-09T13:21:58;7.63;;;2.88;;
77432;SDS011;66752;48.576;8.876;2023-07-09T13:24:25;7.22;;;3.03;;
77432;SDS011;66752;48.576;8.876;2023-07-09T13:26:52;5.65;;;2.58;;
77432;SDS011;66752;48.576;8.876;2023-07-09T13:29:18;8.82;;;3.20;;
77432;SDS011;66752;48.576;8.876;2023-07-09T13:31:45;6.38;;;2.90;;
77432;SDS011;66752;48.576;8.876;2023-07-09T13:34:19;7.40;;;3.20;;
77432;SDS011;66752;48.576;8.876;2023-07-09T13:36:45;5.82;;;2.70;;
77432;SDS011;66752;48.576;8.876;2023-07-09T13:39:11;6.35;;;2.97;;
77432;SDS011;66752;48.576;8.876;2023-07-09T13:41:39;6.90;;;2.60;;
77432;SDS011;66752;48.576;8.876;2023-07-09T13:44:10;5.70;;;2.45;;
77432;SDS011;66752;48.576;8.876;2023-07-09T13:46:37;6.13;;;2.60;;
77432;SDS011;66752;48.576;8.876;2023-07-09T13:49:04;5.30;;;2.45;;
77432;SDS011;66752;48.576;8.876;2023-07-09T13:51:30;6.50;;;3.03;;
77432;SDS011;66752;48.576;8.876;2023-07-09T13:53:57;6.80;;;3.22;;
77432;SDS011;66752;48.576;8.876;2023-07-09T13:56:24;7.18;;;2.80;;
77432;SDS011;66752;48.576;8.876;2023-07-09T13:58:50;6.03;;;2.63;;
77432;SDS011;66752;48.576;8.876;2023-07-09T14:01:20;5.95;;;2.50;;
77432;SDS011;66752;48.576;8.876;2023-07-09T14:03:47;5.93;;;2.60;;
77432;SDS011;66752;48.576;8.876;2023-07-09T14:06:13;5.78;;;2.85;;
77432;SDS011;66752;48.576;8.876;2023-07-09T14:08:39;6.88;;;2.83;;
77432;SDS011;66752;48.576;8.876;2023-07-09T14:11:12;4.90;;;2.85;;
77432;SDS011;66752;48.576;8.876;2023-07-09T14:13:39;5.65;;;2.80;;
77432;SDS011;66752;48.576;8.876;2023-07-09T14:16:05;6.07;;;2.85;;
77432;SDS011;66752;48.576;8.876;2023-07-09T14:18:31;6.53;;;2.95;;
77432;SDS011;66752;48.576;8.876;2023-07-09T14:20:57;6.88;;;2.90;;
77432;SDS011;66752;48.576;8.876;2023-07-09T14:23:23;8.50;;;3.45;;
77432;SDS011;66752;48.576;8.876;2023-07-09T14:25:49;11.40;;;3.55;;
77432;SDS011;66752;48.576;8.876;2023-07-09T14:28:16;5.40;;;2.65;;
77432;SDS011;66752;48.576;8.876;2023-07-09T14:30:42;6.55;;;2.60;;
77432;SDS011;66752;48.576;8.876;2023-07-09T14:33:17;6.15;;;2.80;;
77432;SDS011;66752;48.576;8.876;2023-07-09T14:35:43;6.10;;;3.08;;
77432;SDS011;66752;48.576;8.876;2023-07-09T14:38:20;6.20;;;2.95;;
77432;SDS011;66752;48.576;8.876;2023-07-09T14:40:47;6.60;;;3.00;;
77432;SDS011;66752;48.576;8.876;2023-07-09T14:43:13;7.22;;;3.42;;
77432;SDS011;66752;48.576;8.876;2023-07-09T14:45:39;5.53;;;2.63;;
77432;SDS011;66752;48.576;8.876;2023-07-09T14:48:09;6.50;;;3.00;;
77432;SDS011;66752;48.576;8.876;2023-07-09T14:50:35;6.68;;;2.72;;
77432;SDS011;66752;48.576;8.876;2023-07-09T14:53:02;6.13;;;2.90;;
77432;SDS011;66752;48.576;8.876;2023-07-09T14:55:28;15.02;;;4.00;;
77432;SDS011;66752;48.576;8.876;2023-07-09T14:57:54;5.53;;;3.15;;
77432;SDS011;66752;48.576;8.876;2023-07-09T15:00:24;5.30;;;2.72;;
77432;SDS011;66752;48.576;8.876;2023-07-09T15:02:51;7.03;;;2.67;;
77432;SDS011;66752;48.576;8.876;2023-07-09T15:05:18;7.47;;;3.15;;
77432;SDS011;66752;48.576;8.876;2023-07-09T15:07:45;7.32;;;2.80;;
77432;SDS011;66752;48.576;8.876;2023-07-09T15:10:15;5.95;;;3.03;;
77432;SDS011;66752;48.576;8.876;2023-07-09T15:12:41;6.95;;;3.30;;
77432;SDS011;66752;48.576;8.876;2023-07-09T15:17:39;5.45;;;2.70;;
77432;SDS011;66752;48.576;8.876;2023-07-09T15:20:07;6.40;;;2.97;;
77432;SDS011;66752;48.576;8.876;2023-07-09T15:22:38;6.82;;;2.78;;
77432;SDS011;66752;48.576;8.876;2023-07-09T15:25:08;6.88;;;3.22;;
77432;SDS011;66752;48.576;8.876;2023-07-09T15:27:35;6.05;;;2.80;;
77432;SDS011;66752;48.576;8.876;2023-07-09T15:30:00;5.18;;;2.67;;
77432;SDS011;66752;48.576;8.876;2023-07-09T15:32:27;7.22;;;2.22;;
77432;SDS011;66752;48.576;8.876;2023-07-09T15:34:53;6.05;;;2.70;;
77432;SDS011;66752;48.576;8.876;2023-07-09T15:37:19;6.38;;;3.10;;
77432;SDS011;66752;48.576;8.876;2023-07-09T15:39:45;6.20;;;2.90;;
77432;SDS011;66752;48.576;8.876;2023-07-09T15:42:11;5.57;;;2.88;;
77432;SDS011;66752;48.576;8.876;2023-07-09T15:44:37;5.78;;;3.03;;
77432;SDS011;66752;48.576;8.876;2023-07-09T15:47:03;5.88;;;2.65;;
77432;SDS011;66752;48.576;8.876;2023-07-09T15:49:31;5.25;;;2.60;;
77432;SDS011;66752;48.576;8.876;2023-07-09T15:51:57;4.80;;;2.35;;
77432;SDS011;66752;48.576;8.876;2023-07-09T15:54:23;5.78;;;3.05;;
77432;SDS011;66752;48.576;8.876;2023-07-09T15:56:50;6.95;;;2.60;;
77432;SDS011;66752;48.576;8.876;2023-07-09T15:59:30;5.38;;;2.50;;